Latest Weather Observations for Ballina

IDN60801

Issued at 11:34 pm EDT Friday 19 December 2014 (issued every 30 minutes, with the page automatically refreshed every 10 minutes)

About weather observations | Map of weather stations | Latest weather observations for NSW | Other Formats
Station Details ID: 058198 Name: BALLINA AIRPORT AWS Lat: -28.84 Lon: 153.56 Height: 1.3 m
Data from the previous 72 hours. | See also: Recent months at Ballina
Date/Time
EDT
Temp
°C
App
Temp
°C
Dew
Point
Rel
Hum
%
Delta-T
°C
Wind Press
QNH
hPa
Press
MSL
hPa
Rain
since 9 am
mm
Dir
 
Spd
km/h
Gust
km/h
Spd
kts
Gust
kts
19/11:30pm 22.6 22.4 17.5 73 3.2 SSE 15 20 8 11 1015.5 1015.5 0.2
19/11:00pm 23.0 22.4 17.5 71 3.4 SSE 17 22 9 12 1015.6 1015.6 0.2
19/10:30pm 23.2 22.8 18.1 73 3.2 S 17 22 9 12 1015.4 1015.4 0.2
19/10:00pm 23.2 22.7 17.9 72 3.3 SSE 17 24 9 13 1015.0 1015.0 0.2
19/09:30pm 23.3 22.5 18.0 72 3.3 SSE 19 26 10 14 1014.5 1014.5 0.2
19/09:00pm 23.3 22.5 18.0 72 3.3 SSE 19 24 10 13 1014.2 1014.2 0.2
19/08:30pm 23.4 22.5 18.1 72 3.3 SSE 20 26 11 14 1013.8 1013.8 0.2
19/08:00pm 23.6 23.6 18.9 75 3.0 SSE 17 26 9 14 1013.3 1013.3 0.2
19/07:30pm 24.2 23.9 19.1 73 3.3 SSE 19 24 10 13 1012.8 1012.8 0.2
19/07:00pm 24.8 24.3 19.2 71 3.6 SSE 20 30 11 16 1012.4 1012.4 0.2
19/06:30pm 25.5 24.7 19.2 68 4.0 SSE 22 30 12 16 1011.5 1011.5 0.2
19/06:00pm 25.6 24.9 19.5 69 3.9 SSE 22 32 12 17 1010.9 1010.9 0.2
19/05:30pm 26.3 24.8 19.4 66 4.4 SSE 26 37 14 20 1010.3 1010.3 0.2
19/05:00pm 27.2 25.6 20.0 64 4.7 SSE 28 37 15 20 1010.0 1010.0 0.2
19/04:30pm 28.3 27.7 18.4 55 6.3 ESE 19 30 10 16 1009.4 1009.4 0.2
19/04:00pm 28.0 27.9 18.7 57 6.0 ENE 17 24 9 13 1009.5 1009.5 0.2
19/03:30pm 27.8 26.0 18.8 58 5.8 ENE 26 37 14 20 1009.0 1009.0 0.2
19/03:00pm 29.3 28.3 19.6 56 6.3 NE 24 28 13 15 1008.4 1008.4 0.2
19/02:30pm 29.1 28.7 19.4 55 6.3 NE 20 24 11 13 1008.8 1008.8 0.2
19/02:00pm 29.6 29.9 20.7 58 5.9 NE 20 28 11 15 1009.1 1009.1 0.2
19/01:30pm 29.6 29.9 20.5 58 6.0 ENE 19 24 10 13 1009.3 1009.3 0.2
19/01:00pm 31.3 31.1 16.8 41 9.2 WSW 13 19 7 10 1009.5 1009.5 0.2
19/12:30pm 30.7 29.8 14.8 38 9.7 SW 13 24 7 13 1009.9 1009.9 0.2
19/12:00pm 30.4 29.9 16.8 44 8.6 WSW 15 26 8 14 1010.1 1010.1 0.2
19/11:30am 29.9 28.7 16.0 43 8.6 WSW 17 26 9 14 1010.2 1010.2 0.2
19/11:00am 29.0 28.1 16.9 48 7.6 WSW 17 22 9 12 1010.4 1010.4 0.2
19/10:30am 27.7 28.1 18.1 56 6.1 WNW 13 20 7 11 1010.5 1010.5 0.2
19/10:00am 27.3 26.8 18.6 59 5.6 WNW 19 28 10 15 1010.5 1010.5 0.2
19/09:30am 26.0 24.8 17.6 60 5.3 WNW 20 26 11 14 1010.6 1010.6 0.2
19/09:00am 25.4 25.1 18.3 65 4.5 WNW 17 24 9 13 1010.8 1010.8 3.6
19/08:30am 23.1 24.6 18.8 77 2.7 N 9 13 5 7 1010.8 1010.8 3.6
19/08:00am 21.4 21.7 18.8 85 1.6 N 15 19 8 10 1010.7 1010.7 3.6
19/07:30am 20.3 21.3 18.6 90 1.1 NNW 11 13 6 7 1010.6 1010.6 3.6
19/07:00am 19.8 21.1 18.5 92 0.8 NNE 9 13 5 7 1010.5 1010.5 3.6
19/06:30am 19.5 20.6 18.0 91 0.9 NNE 9 11 5 6 1010.3 1010.3 3.6
19/06:00am 19.4 20.8 17.9 91 0.9 N 7 11 4 6 1010.3 1010.3 3.6
19/05:30am 20.1 21.6 18.0 88 1.3 NW 7 11 4 6 1009.9 1009.9 3.6
19/05:00am 20.1 21.5 17.9 87 1.4 NW 7 9 4 5 1009.8 1009.8 3.6
19/04:30am 20.4 20.7 18.0 86 1.5 N 13 17 7 9 1009.2 1009.2 3.6
19/04:00am 20.1 19.1 17.9 87 1.4 NNW 20 28 11 15 1009.5 1009.5 3.6
19/03:30am 20.4 20.0 18.0 86 1.5 NNW 17 22 9 12 1009.8 1009.8 3.6
19/03:00am 21.0 20.5 18.6 86 1.5 NNW 19 26 10 14 1010.6 1010.6 3.6
19/02:30am 21.4 21.5 19.1 87 1.5 NNW 17 20 9 11 1011.2 1011.2 3.4
19/02:00am 22.4 24.5 21.7 96 0.5 NNW 13 20 7 11 1011.6 1011.6 3.4
19/01:30am 22.7 25.7 22.0 96 0.5 N 9 11 5 6 1011.7 1011.7 3.2
19/01:00am 22.5 27.0 21.5 94 0.7 CALM 0 7 0 4 1011.6 1011.6 2.4
19/12:30am 22.6 25.9 21.4 93 0.8 NE 6 9 3 5 1011.5 1011.5 1.6
19/12:00am 22.4 24.3 21.4 94 0.7 WNW 13 20 7 11 1011.2 1011.2 1.4
 
Date/Time
EDT
Temp
°C
App
Temp
°C
Dew
Point
Rel
Hum
%
Delta-T
°C
Wind Press
QNH
hPa
Press
MSL
hPa
Rain
since 9 am
mm
Dir
 
Spd
km/h
Gust
km/h
Spd
kts
Gust
kts
18/11:30pm 22.2 24.4 21.2 94 0.7 NE 11 13 6 7 1010.9 1010.9 1.2
18/11:00pm 22.1 25.9 20.9 93 0.8 SSW 2 7 1 4 1011.4 1011.4 1.0
18/10:30pm 21.9 25.6 20.7 93 0.8 NNE 2 9 1 5 1011.2 1011.2 0.8
18/10:00pm 22.1 25.0 20.6 91 1.0 NW 6 11 3 6 1010.5 1010.5 0.8
18/09:30pm 22.0 23.8 20.3 90 1.1 SE 11 20 6 11 1010.0 1010.0 0.8
18/09:00pm 22.2 24.0 20.3 89 1.2 E 11 15 6 8 1010.3 1010.3 0.6
18/08:30pm 22.2 23.1 20.1 88 1.4 ENE 15 19 8 10 1009.6 1009.6 0.6
18/08:00pm 22.4 23.5 19.6 84 1.8 W 13 20 7 11 1009.1 1009.1 0.6
18/07:30pm 22.2 23.3 19.6 85 1.7 WNW 13 19 7 10 1009.2 1009.2 0.4
18/07:00pm 22.5 21.4 19.5 83 1.9 W 24 43 13 23 1009.5 1009.5 0.2
18/06:30pm 25.5 23.9 19.2 68 4.0 WNW 26 67 14 36 1008.3 1008.3 0.0
18/06:27pm 26.5 27.8 22.6 79 2.6 NNW 20 32 11 17 1007.4 1007.4 0.0
18/06:00pm 26.7 27.4 22.3 77 3.0 N 22 32 12 17 1005.3 1005.3 0.0
18/05:30pm 27.1 27.5 21.8 73 3.5 NNE 22 35 12 19 1004.8 1004.8 0.0
18/05:00pm 27.6 28.3 21.6 70 4.0 NNE 20 30 11 16 1004.8 1004.8 0.0
18/04:30pm 28.3 28.9 21.3 65 4.7 NNE 20 28 11 15 1004.7 1004.7 0.0
18/04:00pm 28.6 27.9 21.1 64 5.0 N 26 39 14 21 1005.0 1005.0 0.0
18/03:30pm 30.6 30.6 23.0 64 5.2 N 28 43 15 23 1004.9 1004.9 0.0
18/03:00pm 30.6 31.1 22.7 62 5.4 NNE 24 41 13 22 1005.6 1005.6 0.0
18/02:30pm 30.9 31.9 23.5 64 5.1 NE 24 32 13 17 1006.6 1006.6 0.0
18/02:00pm 30.1 31.2 22.3 63 5.3 NE 20 28 11 15 1007.4 1007.4 0.0
18/01:30pm 29.7 31.5 23.6 69 4.2 NE 20 30 11 16 1007.9 1007.9 0.0
18/01:00pm 28.8 30.7 23.5 73 3.6 NE 19 26 10 14 1008.6 1008.6 0.0
18/12:30pm 27.8 29.1 23.4 77 3.0 NE 22 30 12 16 1009.1 1009.1 0.0
18/12:00pm 28.0 29.3 23.4 76 3.2 NE 22 28 12 15 1009.5 1009.5 0.0
18/11:30am 27.4 29.0 23.2 78 2.9 NNE 20 32 11 17 1010.0 1010.0 0.0
18/11:00am 27.1 28.4 22.7 77 3.0 NE 20 28 11 15 1010.1 1010.1 0.0
18/10:30am 26.6 29.1 22.4 78 2.8 NNE 13 17 7 9 1010.3 1010.3 0.0
18/10:00am 25.9 29.0 22.2 80 2.5 N 9 17 5 9 1010.9 1010.9 0.0
18/09:30am 25.8 29.6 22.7 83 2.1 NNW 7 15 4 8 1010.7 1010.7 0.0
18/09:00am 25.1 28.0 21.8 82 2.2 NNE 9 13 5 7 1010.5 1010.5 1.6
18/08:30am 25.1 28.8 22.6 86 1.7 N 7 13 4 7 1010.2 1010.2 1.6
18/08:26am 25.2 28.6 22.7 86 1.7 NNW 9 17 5 9 1009.9 1009.9 1.6
18/08:09am 25.4 27.3 22.7 85 1.8 NNE 17 26 9 14 1009.5 1009.5 1.4
18/08:00am 25.0 27.4 21.5 81 2.3 NNW 11 15 6 8 1009.9 1009.9 0.2
18/07:30am 23.1 26.2 21.4 90 1.1 NE 7 11 4 6 1009.5 1009.5 0.2
18/07:00am 22.2 26.5 21.2 94 0.7 CALM 0 0 0 0 1009.7 1009.7 0.2
18/06:37am 22.0 26.3 21.2 95 0.5 CALM 0 0 0 0 1009.5 1009.5 0.2
18/06:30am 21.4 24.9 20.4 94 0.6 ESE 2 6 1 3 1009.4 1009.4 0.2
18/06:19am 20.8 23.9 19.6 93 0.8 NW 2 9 1 5 1009.5 1009.5 0.2
18/06:00am 21.3 25.2 20.3 94 0.6 CALM 0 0 0 0 1009.6 1009.6 0.2
18/05:30am 21.8 24.5 20.3 91 1.0 ESE 6 9 3 5 1008.8 1008.8 0.2
18/05:00am 22.3 23.9 20.8 91 1.0 NNE 13 20 7 11 1009.7 1009.7 0.2
18/04:30am 22.8 24.6 21.1 90 1.1 NW 13 20 7 11 1011.3 1011.3 0.2
18/04:00am 23.0 25.1 20.9 88 1.4 WNW 11 17 6 9 1011.0 1011.0 0.0
18/03:30am 23.3 25.5 20.4 84 1.9 S 9 13 5 7 1009.7 1009.7 0.0
18/03:00am 23.8 26.0 20.5 82 2.1 SSW 9 13 5 7 1009.9 1009.9 0.0
18/02:30am 24.3 26.2 20.6 80 2.4 SSW 11 17 6 9 1010.2 1010.2 0.0
18/02:00am 24.2 25.5 20.9 82 2.2 E 15 20 8 11 1009.8 1009.8 0.0
18/01:30am 24.3 25.9 20.8 81 2.3 SE 13 19 7 10 1010.1 1010.1 0.0
18/01:00am 24.4 24.7 20.5 79 2.5 SSE 19 26 10 14 1010.4 1010.4 0.0
18/12:30am 24.4 24.2 20.5 79 2.5 SE 22 35 12 19 1009.8 1009.8 0.0
18/12:00am 24.5 25.0 21.2 82 2.2 SE 20 28 11 15 1009.6 1009.6 0.0
 
Date/Time
EDT
Temp
°C
App
Temp
°C
Dew
Point
Rel
Hum
%
Delta-T
°C
Wind Press
QNH
hPa
Press
MSL
hPa
Rain
since 9 am
mm
Dir
 
Spd
km/h
Gust
km/h
Spd
kts
Gust
kts
17/11:30pm 24.5 24.9 21.0 81 2.3 SSE 20 30 11 16 1010.1 1010.1 0.0
17/11:01pm 24.5 24.6 21.2 82 2.2 SSE 22 32 12 17 1010.1 1010.1 0.0
17/11:00pm 24.5 24.6 21.2 82 2.2 SSE 22 32 12 17 1010.1 1010.1 0.0
17/10:30pm 24.7 24.8 21.8 84 1.9 SSE 24 39 13 21 1009.8 1009.8 0.0
17/10:00pm 24.9 23.6 22.4 86 1.7 S 33 50 18 27 1009.0 1009.0 0.0
17/09:51pm 25.0 24.8 22.7 87 1.5 S 28 41 15 22 1008.6 1008.6 0.0
17/09:49pm 25.0 24.8 22.7 87 1.5 SSW 28 41 15 22 1008.6 1008.6 0.0
17/09:30pm 25.0 26.6 22.1 84 1.9 SW 17 22 9 12 1007.7 1007.7 0.0
17/09:13pm 25.4 27.6 21.9 81 2.3 SW 13 19 7 10 1007.1 1007.1 0.0
17/09:00pm 25.2 28.4 21.7 81 2.3 WSW 7 20 4 11 1006.8 1006.8 0.0
17/08:54pm 25.1 28.6 21.8 82 2.2 WNW 6 13 3 7 1006.7 1006.7 0.0
17/08:30pm 25.3 27.8 22.4 84 1.9 SW 13 19 7 10 1006.3 1006.3 0.0
17/08:00pm 26.5 28.8 22.1 77 3.0 WNW 13 24 7 13 1005.8 1005.8 0.0
17/07:30pm 27.6 28.4 21.4 69 4.1 N 19 30 10 16 1004.3 1004.3 0.0
17/07:00pm 29.1 29.3 20.5 59 5.7 N 20 28 11 15 1003.7 1003.7 0.0
17/06:30pm 29.9 31.9 21.6 61 5.6 NNE 13 15 7 8 1003.4 1003.4 0.0
17/06:00pm 29.9 31.3 21.8 62 5.5 NE 17 20 9 11 1003.1 1003.1 0.0
17/05:30pm 31.0 32.5 22.0 58 6.1 NE 17 22 9 12 1002.7 1002.7 0.0
17/05:00pm 31.3 32.2 22.0 57 6.3 NE 20 24 11 13 1002.5 1002.5 0.0
17/04:30pm 32.0 33.3 22.7 58 6.4 NE 20 28 11 15 1002.5 1002.5 0.0
17/04:00pm 32.8 33.7 22.6 55 7.0 NE 22 28 12 15 1002.8 1002.8 0.0
17/03:30pm 32.4 33.0 21.3 52 7.5 ENE 20 28 11 15 1003.0 1003.0 0.0
17/03:00pm 33.9 34.5 21.3 47 8.5 ENE 20 28 11 15 1003.2 1003.2 0.0
17/02:30pm 36.3 38.2 19.7 37 11.1 SSW 9 17 5 9 1003.4 1003.4 0.0
17/02:00pm 37.1 36.8 14.4 26 14.2 WSW 9 19 5 10 1003.6 1003.6 0.0
17/01:30pm 36.8 36.6 15.8 28 13.3 SW 11 28 6 15 1003.7 1003.7 0.0
17/01:00pm 36.4 35.4 16.5 30 12.7 W 17 30 9 16 1003.9 1003.9 0.0
17/12:30pm 35.7 34.1 16.4 31 12.3 W 20 28 11 15 1004.2 1004.2 0.0
17/12:00pm 34.4 35.3 19.2 40 10.0 NW 13 22 7 12 1004.4 1004.4 0.0
17/11:30am 32.9 33.6 19.7 45 8.7 NNW 15 20 8 11 1004.7 1004.7 0.0
17/11:00am 32.3 33.8 21.2 52 7.5 NNW 15 20 8 11 1004.8 1004.8 0.0
17/10:30am 31.2 33.4 21.1 55 6.8 NNW 11 22 6 12 1004.9 1004.9 0.0
17/10:00am 30.1 31.8 21.7 60 5.7 N 15 22 8 12 1005.0 1005.0 0.0
17/09:30am 29.6 31.9 22.8 67 4.6 NNW 15 20 8 11 1005.2 1005.2 0.0
17/09:00am 28.3 30.1 22.5 71 3.9 N 17 24 9 13 1005.4 1005.4 0.6
17/08:30am 27.1 28.1 22.1 74 3.4 N 20 30 11 16 1005.5 1005.5 0.6
17/08:00am 26.1 26.6 22.0 78 2.7 N 22 32 12 17 1005.5 1005.5 0.6
17/07:30am 25.2 25.9 21.5 80 2.5 N 20 28 11 15 1005.3 1005.3 0.6
17/07:00am 24.5 25.2 21.2 82 2.2 NNW 19 28 10 15 1005.2 1005.2 0.6
17/06:30am 23.8 24.7 20.9 84 1.9 N 17 26 9 14 1005.0 1005.0 0.6
17/06:00am 22.5 23.7 19.9 85 1.7 N 13 20 7 11 1004.7 1004.7 0.6
17/05:30am 22.6 24.1 19.8 84 1.8 N 11 17 6 9 1004.6 1004.6 0.6
17/05:00am 22.6 23.3 20.5 88 1.4 N 17 22 9 12 1004.3 1004.3 0.6
17/04:30am 21.8 22.1 20.4 92 0.9 N 19 24 10 13 1003.9 1003.9 0.6
17/04:00am 21.8 22.7 20.8 94 0.7 N 17 22 9 12 1004.0 1004.0 0.6
17/03:30am 21.8 23.9 21.0 95 0.5 N 11 15 6 8 1005.1 1005.1 0.6
17/03:00am 21.7 24.0 20.7 94 0.6 NE 9 11 5 6 1005.3 1005.3 0.6
17/02:30am 21.5 23.8 20.7 95 0.5 NE 9 13 5 7 1005.6 1005.6 0.6
17/02:00am 21.5 23.8 20.7 95 0.5 NNE 9 9 5 5 1005.9 1005.9 0.6
17/01:30am 21.6 25.5 20.4 93 0.8 CALM 0 0 0 0 1006.7 1006.7 0.6
17/01:00am 21.9 24.6 20.7 93 0.8 WNW 7 11 4 6 1007.2 1007.2 0.6
17/12:30am 22.0 22.9 20.8 93 0.8 NNW 17 20 9 11 1007.8 1007.8 0.6
17/12:00am 22.1 24.2 20.9 93 0.8 WNW 11 13 6 7 1008.8 1008.8 0.6

Other Formats:

Comma delimited format used in spreadsheet applications
http://www.bom.gov.au/fwo/IDN60801/IDN60801.94596.axf

JavaScript Object Notation format (JSON) in row-major order
http://www.bom.gov.au/fwo/IDN60801/IDN60801.94596.json